createdAt,value
2022-10-05T00:01:44.286Z,3.20
2022-10-05T00:06:43.512Z,3.23
2022-10-05T00:11:43.500Z,3.27
2022-10-05T00:16:41.563Z,3.27
2022-10-05T00:21:39.505Z,3.00
2022-10-05T00:26:37.412Z,3.37
2022-10-05T00:31:38.424Z,3.00
2022-10-05T00:36:36.422Z,3.20
2022-10-05T00:41:44.430Z,3.43
2022-10-05T00:46:55.481Z,3.53
2022-10-05T00:52:03.285Z,3.90
2022-10-05T00:57:19.929Z,4.00
2022-10-05T01:02:26.787Z,3.80
2022-10-05T01:07:36.024Z,3.33
2022-10-05T01:12:43.629Z,3.93
2022-10-05T01:17:50.782Z,3.00
2022-10-05T01:23:12.903Z,3.37
2022-10-05T01:28:16.332Z,3.00
2022-10-05T01:33:23.285Z,4.10
2022-10-05T01:38:32.434Z,3.50
2022-10-05T01:43:36.853Z,3.23
2022-10-05T01:48:46.389Z,3.13
2022-10-05T01:53:57.922Z,3.47
2022-10-05T01:59:06.356Z,3.60
2022-10-05T02:04:08.321Z,3.73
2022-10-05T02:09:12.640Z,2.80
2022-10-05T02:14:14.299Z,3.67
2022-10-05T02:19:19.034Z,3.50
2022-10-05T02:24:23.126Z,3.30
2022-10-05T02:29:26.669Z,3.60
2022-10-05T02:34:28.025Z,3.13
2022-10-05T02:39:40.015Z,4.10
2022-10-05T02:44:48.011Z,3.60
2022-10-05T02:49:51.582Z,3.37
2022-10-05T02:54:55.019Z,4.00
2022-10-05T03:00:04.551Z,3.50
2022-10-05T03:05:16.677Z,4.47
2022-10-05T03:10:23.695Z,4.10
2022-10-05T03:15:53.694Z,4.23
2022-10-05T03:21:02.879Z,4.23
2022-10-05T03:26:18.679Z,4.00
2022-10-05T03:31:25.779Z,3.67
2022-10-05T03:36:29.981Z,3.60
2022-10-05T03:41:35.829Z,4.40
2022-10-05T03:46:50.905Z,3.47
2022-10-05T03:51:52.612Z,3.43
2022-10-05T03:56:54.765Z,4.00
2022-10-05T04:01:58.829Z,3.50
2022-10-05T04:06:58.944Z,3.43
2022-10-05T04:12:14.930Z,3.77
2022-10-05T04:17:17.524Z,4.10
2022-10-05T04:22:20.685Z,4.07
2022-10-05T04:27:22.744Z,4.00
2022-10-05T04:32:39.786Z,4.17
2022-10-05T04:37:50.366Z,3.63
2022-10-05T04:42:59.642Z,3.80
2022-10-05T04:48:17.148Z,4.27
2022-10-05T04:53:25.071Z,3.70
2022-10-05T04:58:33.006Z,3.97
2022-10-05T05:03:53.933Z,4.93
2022-10-05T05:09:19.692Z,4.17
2022-10-05T05:14:44.073Z,4.13
2022-10-05T05:19:52.288Z,4.23
2022-10-05T05:25:05.943Z,4.40
2022-10-05T05:30:08.429Z,3.90
2022-10-05T05:35:44.579Z,4.00
2022-10-05T05:40:51.734Z,3.97
2022-10-05T05:45:58.127Z,4.70
2022-10-05T05:50:59.315Z,3.63
2022-10-05T05:56:06.125Z,4.07
2022-10-05T06:01:20.441Z,3.53
2022-10-05T06:06:32.873Z,3.80
2022-10-05T06:11:38.326Z,3.80
2022-10-05T06:16:41.793Z,3.30
2022-10-05T06:21:46.346Z,3.67
2022-10-05T06:27:13.039Z,4.13
2022-10-05T06:32:21.841Z,3.13
2022-10-05T06:37:31.864Z,3.50
2022-10-05T06:42:57.962Z,3.23
2022-10-05T06:48:16.667Z,3.13
2022-10-05T06:53:34.846Z,4.90
2022-10-05T06:58:49.647Z,3.97
2022-10-05T07:04:03.095Z,2.83
2022-10-05T07:09:14.646Z,2.90
2022-10-05T07:14:27.262Z,2.70
2022-10-05T07:19:36.953Z,3.33
2022-10-05T07:24:39.525Z,3.03
2022-10-05T07:29:50.014Z,2.73
2022-10-05T07:34:55.800Z,2.90
2022-10-05T07:40:03.286Z,2.77
2022-10-05T07:45:15.855Z,2.50
2022-10-05T07:50:21.116Z,2.90
2022-10-05T07:55:22.574Z,2.73
2022-10-05T08:00:24.585Z,2.70
2022-10-05T08:05:29.526Z,2.90
2022-10-05T08:10:34.193Z,3.60
2022-10-05T08:15:40.263Z,2.40
2022-10-05T08:20:45.555Z,2.60
2022-10-05T08:25:51.790Z,2.43
2022-10-05T08:31:01.014Z,2.50
2022-10-05T08:36:07.156Z,2.90
2022-10-05T08:41:48.299Z,2.50
2022-10-05T08:47:09.370Z,2.70
2022-10-05T08:52:29.025Z,2.40
2022-10-05T08:57:58.720Z,2.90
2022-10-05T09:03:25.421Z,2.77
2022-10-05T09:08:48.929Z,3.70
2022-10-05T09:14:14.314Z,3.30
2022-10-05T09:19:41.165Z,3.63
2022-10-05T09:24:56.242Z,2.90
2022-10-05T09:30:18.416Z,3.87
2022-10-05T09:35:29.772Z,3.13
2022-10-05T09:41:00.976Z,3.40
2022-10-05T09:46:39.039Z,3.03
2022-10-05T09:52:03.790Z,2.90
2022-10-05T09:57:24.834Z,2.63
2022-10-05T10:02:43.349Z,3.10
2022-10-05T10:07:56.638Z,2.83
2022-10-05T10:13:14.667Z,3.30
2022-10-05T10:18:30.487Z,3.33
2022-10-05T10:24:00.243Z,4.00
2022-10-05T10:29:37.057Z,3.73
2022-10-05T10:35:05.001Z,2.50
2022-10-05T10:40:27.767Z,3.40
2022-10-05T10:45:40.454Z,3.57
2022-10-05T10:51:14.524Z,3.90
2022-10-05T10:56:47.229Z,3.70
2022-10-05T11:02:02.475Z,2.93
2022-10-05T11:07:35.537Z,3.63
2022-10-05T11:13:09.217Z,3.40
2022-10-05T11:18:15.551Z,3.33
2022-10-05T11:23:34.129Z,2.40
2022-10-05T11:28:48.140Z,3.57
2022-10-05T11:34:16.499Z,4.03
2022-10-05T11:39:38.703Z,3.70
2022-10-05T11:45:07.735Z,3.03
2022-10-05T11:50:19.294Z,3.73
2022-10-05T11:55:25.249Z,3.20
2022-10-05T12:00:31.556Z,3.67
2022-10-05T12:05:36.241Z,3.20
2022-10-05T12:10:42.497Z,3.40
2022-10-05T12:15:49.174Z,2.47
2022-10-05T12:20:52.241Z,3.00
2022-10-05T12:25:56.858Z,2.10
2022-10-05T12:31:11.092Z,2.10
2022-10-05T12:36:14.555Z,2.10
2022-10-05T12:41:20.630Z,2.10
2022-10-05T12:46:30.548Z,2.50
2022-10-05T12:51:39.198Z,2.60
2022-10-05T12:56:43.692Z,2.10
2022-10-05T13:01:48.787Z,2.33
2022-10-05T13:07:05.462Z,2.40
2022-10-05T13:12:07.787Z,2.43
2022-10-05T13:17:16.925Z,2.20
2022-10-05T13:22:25.446Z,2.20
2022-10-05T13:27:28.651Z,2.53
2022-10-05T13:32:33.153Z,2.50
2022-10-05T13:37:41.352Z,2.10
2022-10-05T13:42:44.448Z,2.20
2022-10-05T13:47:55.656Z,2.40
2022-10-05T13:53:00.659Z,2.43
2022-10-05T13:58:06.831Z,2.20
2022-10-05T14:03:25.172Z,2.40
2022-10-05T14:08:29.217Z,2.50
2022-10-05T14:13:32.202Z,2.27
2022-10-05T14:18:33.952Z,3.20
2022-10-05T14:23:32.162Z,2.70
2022-10-05T14:28:33.277Z,2.80
2022-10-05T14:33:34.295Z,3.47
2022-10-05T14:38:37.058Z,3.10
2022-10-05T14:43:36.207Z,2.60
2022-10-05T14:48:44.007Z,2.70
2022-10-05T14:53:46.638Z,2.23
2022-10-05T14:59:11.159Z,2.13
2022-10-05T15:04:24.432Z,2.23
2022-10-05T15:09:47.020Z,2.37
2022-10-05T15:14:47.719Z,2.90
2022-10-05T15:19:56.207Z,2.30
2022-10-05T15:25:03.846Z,2.63
2022-10-05T15:30:09.426Z,2.10
2022-10-05T15:35:36.706Z,2.40
2022-10-05T15:40:38.643Z,2.83
2022-10-05T15:45:38.499Z,3.17
2022-10-05T15:50:47.778Z,2.50
2022-10-05T15:55:52.192Z,2.10
2022-10-05T16:00:55.804Z,2.67
2022-10-05T16:06:18.512Z,2.67
2022-10-05T16:11:27.618Z,2.80
2022-10-05T16:16:30.247Z,2.57
2022-10-05T16:21:38.910Z,2.93
2022-10-05T16:26:50.694Z,2.87
2022-10-05T16:32:01.163Z,3.10
2022-10-05T16:37:09.766Z,2.90
2022-10-05T16:42:16.745Z,3.30
2022-10-05T16:47:33.362Z,2.77
2022-10-05T16:52:34.567Z,3.30
2022-10-05T16:57:36.169Z,3.10
2022-10-05T17:02:46.966Z,3.40
2022-10-05T17:08:09.925Z,3.27
2022-10-05T17:13:28.609Z,3.73
2022-10-05T17:18:32.630Z,3.00
2022-10-05T17:23:51.157Z,3.30
2022-10-05T17:29:01.351Z,3.87
2022-10-05T17:34:26.411Z,3.70
2022-10-05T17:39:50.698Z,3.73
2022-10-05T17:44:48.635Z,4.00
2022-10-05T17:50:15.374Z,3.47
2022-10-05T17:55:38.280Z,3.87
2022-10-05T18:01:14.345Z,4.47
2022-10-05T18:06:48.012Z,5.60
2022-10-05T18:12:03.601Z,4.80
2022-10-05T18:17:03.560Z,4.50
2022-10-05T18:22:04.421Z,4.93
2022-10-05T18:27:30.809Z,5.40
2022-10-05T18:32:43.113Z,5.83
2022-10-05T18:37:51.966Z,4.53
2022-10-05T18:43:00.190Z,5.07
2022-10-05T18:48:12.327Z,4.90
2022-10-05T18:53:23.380Z,4.40
2022-10-05T18:58:29.668Z,5.30
2022-10-05T19:03:33.271Z,5.40
2022-10-05T19:08:39.190Z,4.37
2022-10-05T19:13:46.701Z,5.13
2022-10-05T19:18:59.760Z,3.80
2022-10-05T19:24:22.941Z,4.10
2022-10-05T19:29:34.929Z,3.70
2022-10-05T19:34:48.666Z,3.43
2022-10-05T19:39:54.649Z,2.87
2022-10-05T19:45:09.089Z,3.10
2022-10-05T19:50:26.160Z,3.10
2022-10-05T19:55:32.120Z,3.70
2022-10-05T20:00:33.261Z,3.50
2022-10-05T20:05:31.226Z,3.80
2022-10-05T20:10:31.040Z,3.10
2022-10-05T20:15:50.577Z,2.93
2022-10-05T20:20:49.511Z,3.33
2022-10-05T20:26:07.818Z,3.33
2022-10-05T20:31:09.093Z,3.60
2022-10-05T20:36:08.520Z,3.30
2022-10-05T20:41:06.726Z,3.10
2022-10-05T20:46:04.813Z,2.97
2022-10-05T20:51:04.084Z,2.87
2022-10-05T20:56:02.448Z,3.40
2022-10-05T21:01:19.992Z,3.07
2022-10-05T21:06:20.993Z,3.17
2022-10-05T21:11:18.935Z,3.53
2022-10-05T21:16:18.500Z,3.60
2022-10-05T21:21:17.214Z,3.60
2022-10-05T21:26:16.734Z,2.97
2022-10-05T21:31:14.689Z,3.00
2022-10-05T21:36:14.579Z,3.00
2022-10-05T21:41:12.491Z,2.73
2022-10-05T21:46:13.693Z,2.83
2022-10-05T21:51:16.405Z,3.13
2022-10-05T21:56:16.800Z,3.17
2022-10-05T22:01:20.153Z,2.53
2022-10-05T22:06:20.310Z,3.10
2022-10-05T22:11:18.986Z,2.87
2022-10-05T22:16:20.736Z,2.27
2022-10-05T22:21:20.942Z,2.73
2022-10-05T22:26:22.137Z,3.10
2022-10-05T22:31:21.559Z,3.07
2022-10-05T22:36:20.458Z,2.50
2022-10-05T22:41:18.706Z,2.70
2022-10-05T22:46:16.833Z,3.23
2022-10-05T22:51:16.870Z,3.03
2022-10-05T22:56:15.100Z,3.23
2022-10-05T23:01:14.956Z,3.00
2022-10-05T23:06:14.709Z,2.80
2022-10-05T23:11:16.109Z,3.13
2022-10-05T23:16:16.388Z,3.67
2022-10-05T23:21:14.327Z,3.27
2022-10-05T23:26:14.054Z,3.60
2022-10-05T23:31:11.983Z,3.20
2022-10-05T23:36:13.108Z,2.87
2022-10-05T23:41:11.615Z,3.80
2022-10-05T23:46:11.380Z,3.50
2022-10-05T23:51:14.357Z,3.47
2022-10-05T23:56:12.941Z,3.13
